This is the latest recevied weather packets stored in our database for station/object OE7SBH-WX. If no packets are shown the sender has not sent any weather packets the latest 10 day(s).
| Time | Temp. | Humidity | Pressure | Rain* | Wind** | Luminosity | Snow |
|---|---|---|---|---|---|---|---|
| 1777698330 | 4.44° C | 88% | 1031 hPa | 0 mm | - | 22 W/m² | - |
| 1777697725 | 4.44° C | 89% | 1031 hPa | 0 mm | - | 19 W/m² | - |
| 1777689928 | 5.56° C | 83% | 1030.9 hPa | 0 mm | - | 0 W/m² | - |
| 1777688120 | 5.56° C | 83% | 1031 hPa | 0 mm | - | 0 W/m² | - |
| 1777686331 | 6.11° C | 82% | 1030.9 hPa | 0 mm | - | 0 W/m² | - |
| 1777683333 | 6.67° C | 78% | 1031 hPa | 0 mm | - | 0 W/m² | - |
| 1777671322 | 10.56° C | 64% | 1030.9 hPa | 0 mm | - | 0 W/m² | - |
| 1777670722 | 10.56° C | 67% | 1031 hPa | 0 mm | - | 0 W/m² | - |
| 1777670119 | 11.67° C | 62% | 1030.9 hPa | 0 mm | - | 0 W/m² | - |
| 1777663527 | 13.89° C | 53% | 1029.7 hPa | 0 mm | - | 0 W/m² | - |
| 1777662934 | 13.89° C | 51% | 1029.7 hPa | 0 mm | - | 0 W/m² | - |
| 1777659319 | 17.78° C | 40% | 1028.8 hPa | 0 mm | - | 6 W/m² | - |
| 1777657533 | 18.89° C | 37% | 1028.3 hPa | 0 mm | - | 16 W/m² | - |
| 1777653931 | 20.56° C | 33% | 1027.8 hPa | 0 mm | - | 103 W/m² | - |
| 1777650954 | 21.67° C | 30% | 1027.7 hPa | 0 mm | - | 217 W/m² | - |
| 1777646155 | 22.22° C | 30% | 1027.7 hPa | 0 mm | - | 409 W/m² | - |
| 1777638334 | 21.11° C | 31% | 1029.2 hPa | 0 mm | - | 632 W/m² | - |
| 1777637131 | 20.56° C | 34% | 1029.5 hPa | 0 mm | - | 649 W/m² | - |
| 1777635334 | 18.33° C | 36% | 1030.1 hPa | 0 mm | - | 613 W/m² | - |
| 1777634733 | 18.33° C | 35% | 1030.3 hPa | 0 mm | - | 669 W/m² | - |
| 1777632333 | 17.22° C | 36% | 1030.9 hPa | 0 mm | - | 666 W/m² | - |
| 1777631720 | 17.78° C | 36% | 1031.1 hPa | 0 mm | - | 661 W/m² | - |
| 1777629934 | 15.56° C | 40% | 1031.6 hPa | 0 mm | - | 640 W/m² | - |
| 1777628133 | 14.44° C | 43% | 1032 hPa | 0 mm | - | 607 W/m² | - |
| 1777620919 | 8.33° C | 62% | 1033.1 hPa | 0 mm | - | 374 W/m² | - |
* Rain latest hour (hover to see other rain measurements)
** Current wind speed in m/s (hover to see current wind gust speed)